Terminal Aerodrome Forecast
Issued by NWS

Home | Current Version | Previous Version | Text Only | Print | Product List | Glossary On
Versions: 1 2 3 4 5 6 7 8 9 10 11 12
000
FTUS42 KJAX 212300
TAFVQQ
TAF
KVQQ 212340Z 2200/2224 03003KT P6SM FEW250
     FM220600 03003KT P6SM FEW100 SCT250
     FM221100 03005KT P6SM FEW035 BKN080
     FM221400 06008G15KT P6SM VCSH BKN025 OVC070
     FM221700 07011G16KT P6SM VCSH BKN020 OVC070=

USA.gov is the U.S. government's official web portal to all federal, state and local government web resources and services.